Главная страница
METAR-TAF:

METAR-TAF

Аэропорты :

Москва-Домодедово, Россия

Домодедово

широта: 55-24N, долгота: 037-54E, высота над уровнем моря: 179 м

Текущие метеонаблюдения

Эта сводка был подготовлена 20 минут назад, в 07:00 UTC
Ветер 8 Узел от юго-юго-восточный
Температура 16°C
Влажность 55%
Давление 1018 hPa
Видимость 10 км и более
Нет облачности ниже 1500 м, и нет кучево-дождевой облачности

METAR: UUDD 290700Z 16004MPS CAVOK 16/07 Q1018 R14R/010095 R14L/290095 NOSIG

Время: 10:20 (07:20 UTC)

Прогноз

Эта сводка был подготовлена 2 часа и 24 минут назад, в 04:56 UTC
Прогноз действительный с 29-го 06 UTC до 30-го 12 UTC
Ветер 12 Узел от юго-восточный
Видимость 10 км и более
Отдельные облака на высоте 2000 фута
временами
С 29-го 08 UTC до 29-го 16 UTC
Ветер 21 Узел от южный

TAF: UUDD 290456Z 2906/3012 14006MPS 9999 SCT020 TX21/2912Z TN09/3001Z TEMPO 2908/2916 17011MPS

Метеонаблюдения и прогнозы для более 4000 аэропортов (сводки METAR и TAF).

Имеющиеся станции представлены на карте желтыми и красными точками.

Чтобы увидеть название станции, наведите на нее мышь.

Затем щелкните, чтобы увидеть метеонаблюдения и метеопрогнозы.

Управление картой: чтобы увеличить масштаб, щелкните зеленые кнопки с черным крестиком; чтобы уменьшить масштаб, щелкните зеленую кнопку с тире; для просмотра соседних карт щелкайте зеленые стрелки.


METAR-TAF: